Nearby METAR Reports

 

KRDU - Raleigh/Durham, North Carolina, USA
Distance from station: NNW 20mi, 33km
Updated: Fri, 13-Dec-2019 1:51am EST
Overcast
Overcast
 Wind from NNE
Wind: NNE 3 mph , 6 km/h
Temperature: 37°F , 3°C
Dew Point: 28°F , -2°C
Humidity: 70%
Barometer: 30.40 inHg , 1029.5 hPa
Clouds: Overcast
Visibility: 10 miles , 16 km
Cloud details: Few Clouds 4700 ft
Mostly cloudy 6000 ft
Mostly cloudy 11000 ft
Overcast 25000 ft
2019/12/13 06:51 KRDU 130651Z 02003KT 10SM FEW047 BKN060 BKN110 OVC250 03/M02 A3040 RMK AO2 SLP297 T00281017
KJNX - Smithfield Johns, North Carolina, USA
Distance from station: ESE 17mi, 28km
Updated: Fri, 13-Dec-2019 2:35am EST
Overcast
Overcast
 Wind from NNE
Wind: NNE 6 mph , 9 km/h
Temperature: 36°F , 2°C
Wind Chill: 31°F , -1°C
Dew Point: 32°F , 0°C
Humidity: 87%
Barometer: 30.37 inHg , 1028.4 hPa
Clouds: Overcast
Visibility: 10 miles , 16 km
Cloud details: Overcast 11000 ft
2019/12/13 07:35 KJNX 130735Z AUTO 03005KT 10SM OVC110 02/00 A3037 RMK AO2
 
KLHZ - Louisburg/Frankl, North Carolina, USA
Distance from station: NE 33mi, 54km
Updated: Fri, 13-Dec-2019 2:35am EST
Mostly cloudy
Mostly cloudy
 Wind from NNE
Wind: NNE 6 mph , 9 km/h
Temperature: 34°F , 1°C
Wind Chill: 29°F , -2°C
Dew Point: 32°F , 0°C
Humidity: 93%
Barometer: 30.39 inHg , 1029.1 hPa
Clouds: Mostly cloudy
Visibility: 10 miles , 16 km
Cloud details: Partly cloudy 6000 ft
Mostly cloudy 11000 ft
2019/12/13 07:35 KLHZ 130735Z AUTO 02005KT 10SM SCT060 BKN110 01/00 A3039 RMK AO2
KPOB - Pope Afb, North Carolina, USA
Distance from station: SSW 37mi, 59km
Updated: Fri, 13-Dec-2019 1:56am EST
Overcast
Overcast
 Wind from ENE
Wind: ENE 8 mph , 13 km/h
Temperature: 39°F , 4°C
Wind Chill: 33°F , 1°C
Dew Point: 30°F , -1°C
Humidity: 70%
Barometer: 30.36 inHg , 1028.1 hPa
Clouds: Overcast
Visibility: 10 miles , 16 km
Cloud details: Partly cloudy 6000 ft
Overcast 10000 ft
2019/12/13 06:56 KPOB 130656Z AUTO 07007KT 10SM SCT060 OVC100 04/M01 A3036 RMK AO2 SLP285 T00361012 $
 
KSCR - Siler City, North Carolina, USA
Distance from station: W 47mi, 75km
Updated: Fri, 13-Dec-2019 2:35am EST
Overcast
Overcast
 Wind from N
Wind: N 6 mph , 9 km/h
Temperature: 37°F , 3°C
Wind Chill: 32°F , 0°C
Dew Point: 30°F , -1°C
Humidity: 75%
Barometer: 30.36 inHg , 1028.1 hPa
Clouds: Overcast
Visibility: 10 miles , 16 km
Cloud details: Overcast 5000 ft
2019/12/13 07:35 KSCR 130735Z AUTO 01005KT 10SM OVC050 03/M01 A3036 RMK AO2 T00291011
KTDF - Roxboro Person, North Carolina, USA
Distance from station: NNW 49mi, 79km
Updated: Fri, 13-Dec-2019 2:35am EST
Overcast
Overcast
 Wind from NE
Wind: NE 6 mph , 9 km/h
Temperature: 34°F , 1°C
Wind Chill: 29°F , -2°C
Dew Point: 28°F , -2°C
Humidity: 81%
Barometer: 30.41 inHg , 1029.8 hPa
Clouds: Overcast
Visibility: 10 miles , 16 km
Cloud details: Overcast 6000 ft
2019/12/13 07:35 KTDF 130735Z AUTO 04005KT 10SM OVC060 01/M02 A3041 RMK AO2
 
KSOP - Southern Pines, North Carolina, USA
Distance from station: SW 50mi, 80km
Updated: Fri, 13-Dec-2019 1:56am EST
Mostly cloudy
Mostly cloudy
 Wind from NE
Wind: NE 6 mph , 9 km/h
Temperature: 39°F , 4°C
Wind Chill: 35°F , 2°C
Dew Point: 30°F , -1°C
Humidity: 70%
Barometer: 30.37 inHg , 1028.4 hPa
Clouds: Mostly cloudy
Visibility: 10 miles , 16 km
Cloud details: Mostly cloudy 5500 ft
2019/12/13 06:56 KSOP 130656Z AUTO 04005KT 10SM BKN055 04/M01 A3037 RMK AO2 SLP293 T00391006
KHNZ - Henderson/Oxford, North Carolina, USA
Distance from station: N 52mi, 84km
Updated: Fri, 13-Dec-2019 2:35am EST
Overcast
Overcast
 Wind from NNE
Wind: NNE 5 mph , 7 km/h
Temperature: 32°F , 0°C
Wind Chill: 27°F , -3°C
Dew Point: 27°F , -3°C
Humidity: 80%
Barometer: 30.38 inHg , 1028.8 hPa
Clouds: Overcast
Visibility: 10 miles , 16 km
Cloud details: Mostly cloudy 5000 ft
Overcast 6000 ft
2019/12/13 07:35 KHNZ 130735Z AUTO 02004KT 10SM BKN050 OVC060 00/M03 A3038 RMK AO2 T00001030
 
KBUY - Burlington, North Carolina, USA
Distance from station: NW 54mi, 86km
Updated: Fri, 13-Dec-2019 1:54am EST
Overcast
Overcast
 Wind from NNE
Wind: NNE 6 mph , 9 km/h
Temperature: 37°F , 3°C
Wind Chill: 32°F , 0°C
Dew Point: 27°F , -3°C
Humidity: 65%
Barometer: 30.38 inHg , 1028.8 hPa
Clouds: Overcast
Visibility: 10 miles , 16 km
Cloud details: Overcast 5500 ft
2019/12/13 06:54 KBUY 130654Z AUTO 02005KT 10SM OVC055 03/M03 A3038 RMK AO2 SLP292 T00331033
KTNB - Boone Watauga Ct, North Carolina, USA
Distance from station: SE 2mi, 3km
Updated: Fri, 13-Dec-2019 2:35am EST

 Wind from calm
Wind: Calm
Temperature: 28°F , -2°C
Dew Point: 28°F , -2°C
Humidity: 100%
Barometer: 30.28 inHg , 1025.4 hPa
Visibility: 1 1/4 miles , 2 km
2019/12/13 07:35 KTNB 130735Z AUTO 00000KT 1 1/4SM UP M02/M02 A3028 RMK AO2 P0004 T10191019
 
KGEV - Jefferson, North Carolina, USA
Distance from station: NE 21mi, 33km
Updated: Fri, 13-Dec-2019 2:35am EST
Overcast
Overcast
 Wind from calm
Wind: Calm
Temperature: 27°F , -3°C
Dew Point: 25°F , -4°C
Humidity: 93%
Barometer: 30.27 inHg , 1025.1 hPa
Clouds: Overcast
Visibility: 4 miles , 6 km
Cloud details: Overcast 800 ft
2019/12/13 07:35 KGEV 130735Z AUTO 00000KT 4SM UP OVC008 M03/M04 A3027 RMK AO2 T10351039
KFQD - Rutherfordton, North Carolina, USA
Distance from station: SSW 57mi, 92km
Updated: Fri, 13-Dec-2019 2:35am EST
Rain, Overcast
Rain, Overcast
 Wind from N
Wind: N 7 mph , 11 km/h
Temperature: 32°F , 0°C
Wind Chill: 25°F , -4°C
Dew Point: 32°F , 0°C
Humidity: 100%
Barometer: 30.35 inHg , 1027.8 hPa
Summary: Rain
Clouds: Overcast
Visibility: 4 miles , 6 km
Cloud details: Partly cloudy 700 ft
Mostly cloudy 1700 ft
Overcast 2300 ft
2019/12/13 07:35 KFQD 130735Z AUTO 01006KT 4SM RA SCT007 BKN017 OVC023 00/00 A3035 RMK AO2 P0002
 
KAVL - Asheville, North Carolina, USA
Distance from station: SW 72mi, 117km
Updated: Fri, 13-Dec-2019 2:35am EST
Mist, Overcast
Mist, Overcast
 Wind from calm
Wind: Calm
Temperature: 32°F , 0°C
Dew Point: 30°F , -1°C
Humidity: 93%
Barometer: 30.30 inHg , 1026.1 hPa
Summary: Mist
Clouds: Overcast
Visibility: 4 miles , 6 km
Cloud details: Mostly cloudy 400 ft
Overcast 1600 ft
2019/12/13 07:35 KAVL 130735Z AUTO 00000KT 4SM UP BR BKN004 OVC016 00/M01 A3030 RMK AO2 P0003 T00001011